sensor_id;sensor_type;location;lat;lon;timestamp;P1;durP1;ratioP1;P2;durP2;ratioP2
40322;SDS011;26030;51.164;17.100;2022-09-21T00:05:01;2.30;;;1.30;;
40322;SDS011;26030;51.164;17.100;2022-09-21T00:10:07;3.90;;;1.90;;
40322;SDS011;26030;51.164;17.100;2022-09-21T00:15:12;4.40;;;1.50;;
40322;SDS011;26030;51.164;17.100;2022-09-21T00:20:15;4.60;;;1.70;;
40322;SDS011;26030;51.164;17.100;2022-09-21T00:25:19;3.70;;;1.70;;
40322;SDS011;26030;51.164;17.100;2022-09-21T00:30:23;4.70;;;2.10;;
40322;SDS011;26030;51.164;17.100;2022-09-21T00:35:27;3.90;;;1.70;;
40322;SDS011;26030;51.164;17.100;2022-09-21T00:40:30;3.90;;;1.80;;
40322;SDS011;26030;51.164;17.100;2022-09-21T00:45:34;3.40;;;1.70;;
40322;SDS011;26030;51.164;17.100;2022-09-21T00:50:45;3.60;;;1.60;;
40322;SDS011;26030;51.164;17.100;2022-09-21T00:55:53;5.50;;;1.60;;
40322;SDS011;26030;51.164;17.100;2022-09-21T01:00:59;3.10;;;1.50;;
40322;SDS011;26030;51.164;17.100;2022-09-21T01:06:03;3.00;;;1.50;;
40322;SDS011;26030;51.164;17.100;2022-09-21T01:16:23;4.40;;;1.60;;
40322;SDS011;26030;51.164;17.100;2022-09-21T01:21:33;2.30;;;1.30;;
40322;SDS011;26030;51.164;17.100;2022-09-21T01:27:03;2.30;;;1.30;;
40322;SDS011;26030;51.164;17.100;2022-09-21T01:32:18;3.50;;;1.60;;
40322;SDS011;26030;51.164;17.100;2022-09-21T01:37:46;3.90;;;1.70;;
40322;SDS011;26030;51.164;17.100;2022-09-21T01:42:53;2.80;;;1.50;;
40322;SDS011;26030;51.164;17.100;2022-09-21T01:47:59;2.70;;;1.70;;
40322;SDS011;26030;51.164;17.100;2022-09-21T01:53:12;2.90;;;1.50;;
40322;SDS011;26030;51.164;17.100;2022-09-21T02:03:50;2.90;;;1.40;;
40322;SDS011;26030;51.164;17.100;2022-09-21T02:08:55;5.10;;;1.60;;
40322;SDS011;26030;51.164;17.100;2022-09-21T02:13:59;2.90;;;1.20;;
40322;SDS011;26030;51.164;17.100;2022-09-21T02:19:26;3.70;;;1.60;;
40322;SDS011;26030;51.164;17.100;2022-09-21T02:24:43;3.50;;;1.60;;
40322;SDS011;26030;51.164;17.100;2022-09-21T02:29:56;3.00;;;1.30;;
40322;SDS011;26030;51.164;17.100;2022-09-21T02:40:34;2.70;;;1.30;;
40322;SDS011;26030;51.164;17.100;2022-09-21T02:45:44;3.10;;;1.50;;
40322;SDS011;26030;51.164;17.100;2022-09-21T02:50:53;3.10;;;1.70;;
40322;SDS011;26030;51.164;17.100;2022-09-21T02:55:59;3.50;;;1.50;;
40322;SDS011;26030;51.164;17.100;2022-09-21T03:01:10;2.30;;;1.20;;
40322;SDS011;26030;51.164;17.100;2022-09-21T03:06:15;3.10;;;1.40;;
40322;SDS011;26030;51.164;17.100;2022-09-21T03:11:19;3.20;;;1.60;;
40322;SDS011;26030;51.164;17.100;2022-09-21T03:16:23;2.90;;;1.50;;
40322;SDS011;26030;51.164;17.100;2022-09-21T03:21:27;3.70;;;1.50;;
40322;SDS011;26030;51.164;17.100;2022-09-21T03:26:32;3.60;;;1.60;;
40322;SDS011;26030;51.164;17.100;2022-09-21T03:31:35;2.80;;;1.50;;
40322;SDS011;26030;51.164;17.100;2022-09-21T03:36:39;3.20;;;1.70;;
40322;SDS011;26030;51.164;17.100;2022-09-21T03:41:44;3.00;;;1.30;;
40322;SDS011;26030;51.164;17.100;2022-09-21T03:46:47;3.20;;;1.40;;
40322;SDS011;26030;51.164;17.100;2022-09-21T03:51:52;2.00;;;1.10;;
40322;SDS011;26030;51.164;17.100;2022-09-21T03:56:55;5.00;;;1.90;;
40322;SDS011;26030;51.164;17.100;2022-09-21T04:01:59;2.30;;;1.40;;
40322;SDS011;26030;51.164;17.100;2022-09-21T04:07:02;3.00;;;1.70;;
40322;SDS011;26030;51.164;17.100;2022-09-21T04:12:07;4.00;;;2.10;;
40322;SDS011;26030;51.164;17.100;2022-09-21T04:17:10;1.90;;;1.10;;
40322;SDS011;26030;51.164;17.100;2022-09-21T04:22:14;2.40;;;1.40;;
40322;SDS011;26030;51.164;17.100;2022-09-21T04:27:18;3.40;;;1.60;;
40322;SDS011;26030;51.164;17.100;2022-09-21T04:32:24;3.00;;;1.70;;
40322;SDS011;26030;51.164;17.100;2022-09-21T04:37:27;2.30;;;1.40;;
40322;SDS011;26030;51.164;17.100;2022-09-21T04:42:31;2.50;;;1.30;;
40322;SDS011;26030;51.164;17.100;2022-09-21T04:47:34;3.40;;;1.20;;
40322;SDS011;26030;51.164;17.100;2022-09-21T04:52:38;2.50;;;1.50;;
40322;SDS011;26030;51.164;17.100;2022-09-21T04:57:42;4.20;;;1.50;;
40322;SDS011;26030;51.164;17.100;2022-09-21T05:02:46;3.40;;;1.50;;
40322;SDS011;26030;51.164;17.100;2022-09-21T05:07:49;2.90;;;1.20;;
40322;SDS011;26030;51.164;17.100;2022-09-21T05:12:53;2.60;;;1.40;;
40322;SDS011;26030;51.164;17.100;2022-09-21T05:17:57;2.50;;;1.40;;
40322;SDS011;26030;51.164;17.100;2022-09-21T05:23:00;2.60;;;1.20;;
40322;SDS011;26030;51.164;17.100;2022-09-21T05:28:14;3.00;;;1.40;;
40322;SDS011;26030;51.164;17.100;2022-09-21T05:33:25;2.10;;;1.20;;
40322;SDS011;26030;51.164;17.100;2022-09-21T05:38:31;2.90;;;1.20;;
40322;SDS011;26030;51.164;17.100;2022-09-21T05:43:35;2.80;;;1.40;;
40322;SDS011;26030;51.164;17.100;2022-09-21T05:48:41;2.80;;;1.40;;
40322;SDS011;26030;51.164;17.100;2022-09-21T05:54:19;5.00;;;1.80;;
40322;SDS011;26030;51.164;17.100;2022-09-21T06:05:04;7.10;;;1.60;;
40322;SDS011;26030;51.164;17.100;2022-09-21T06:10:16;5.20;;;1.40;;
40322;SDS011;26030;51.164;17.100;2022-09-21T06:15:37;11.90;;;2.10;;
40322;SDS011;26030;51.164;17.100;2022-09-21T06:20:41;8.70;;;1.70;;
40322;SDS011;26030;51.164;17.100;2022-09-21T06:25:52;8.10;;;1.50;;
40322;SDS011;26030;51.164;17.100;2022-09-21T06:31:01;6.00;;;1.80;;
40322;SDS011;26030;51.164;17.100;2022-09-21T06:36:06;5.20;;;1.70;;
40322;SDS011;26030;51.164;17.100;2022-09-21T06:41:13;12.50;;;1.90;;
40322;SDS011;26030;51.164;17.100;2022-09-21T06:46:24;6.10;;;1.50;;
40322;SDS011;26030;51.164;17.100;2022-09-21T06:51:27;8.50;;;1.60;;
40322;SDS011;26030;51.164;17.100;2022-09-21T06:56:31;6.40;;;1.70;;
40322;SDS011;26030;51.164;17.100;2022-09-21T07:01:39;5.90;;;2.10;;
40322;SDS011;26030;51.164;17.100;2022-09-21T07:06:44;8.20;;;2.00;;
40322;SDS011;26030;51.164;17.100;2022-09-21T07:11:48;7.30;;;1.70;;
40322;SDS011;26030;51.164;17.100;2022-09-21T07:16:52;6.60;;;1.90;;
40322;SDS011;26030;51.164;17.100;2022-09-21T07:21:55;8.60;;;1.80;;
40322;SDS011;26030;51.164;17.100;2022-09-21T07:27:02;11.20;;;1.90;;
40322;SDS011;26030;51.164;17.100;2022-09-21T07:32:05;5.30;;;1.60;;
40322;SDS011;26030;51.164;17.100;2022-09-21T07:37:09;5.60;;;1.70;;
40322;SDS011;26030;51.164;17.100;2022-09-21T07:42:12;2.90;;;1.50;;
40322;SDS011;26030;51.164;17.100;2022-09-21T07:47:16;4.10;;;1.20;;
40322;SDS011;26030;51.164;17.100;2022-09-21T07:52:20;5.20;;;1.40;;
40322;SDS011;26030;51.164;17.100;2022-09-21T07:57:24;4.60;;;1.80;;
40322;SDS011;26030;51.164;17.100;2022-09-21T08:02:46;4.10;;;1.60;;
40322;SDS011;26030;51.164;17.100;2022-09-21T08:07:54;3.60;;;1.80;;
40322;SDS011;26030;51.164;17.100;2022-09-21T08:12:58;5.00;;;1.80;;
40322;SDS011;26030;51.164;17.100;2022-09-21T08:18:03;4.10;;;1.60;;
40322;SDS011;26030;51.164;17.100;2022-09-21T08:23:09;4.10;;;1.80;;
40322;SDS011;26030;51.164;17.100;2022-09-21T08:28:13;3.00;;;1.50;;
40322;SDS011;26030;51.164;17.100;2022-09-21T08:33:17;6.50;;;1.60;;
40322;SDS011;26030;51.164;17.100;2022-09-21T08:38:21;4.20;;;2.20;;
40322;SDS011;26030;51.164;17.100;2022-09-21T08:43:30;3.90;;;1.60;;
40322;SDS011;26030;51.164;17.100;2022-09-21T08:48:44;3.20;;;1.80;;
40322;SDS011;26030;51.164;17.100;2022-09-21T08:53:53;4.80;;;1.50;;
40322;SDS011;26030;51.164;17.100;2022-09-21T08:58:58;5.00;;;1.80;;
40322;SDS011;26030;51.164;17.100;2022-09-21T09:20:10;7.20;;;2.20;;
40322;SDS011;26030;51.164;17.100;2022-09-21T09:25:26;2.90;;;1.70;;
40322;SDS011;26030;51.164;17.100;2022-09-21T09:30:33;4.20;;;2.30;;
40322;SDS011;26030;51.164;17.100;2022-09-21T09:35:47;5.50;;;2.00;;
40322;SDS011;26030;51.164;17.100;2022-09-21T09:46:06;3.30;;;1.90;;
40322;SDS011;26030;51.164;17.100;2022-09-21T09:51:17;5.80;;;2.90;;
40322;SDS011;26030;51.164;17.100;2022-09-21T09:56:22;4.30;;;2.40;;
40322;SDS011;26030;51.164;17.100;2022-09-21T10:01:43;6.50;;;2.60;;
40322;SDS011;26030;51.164;17.100;2022-09-21T10:06:48;4.00;;;2.60;;
40322;SDS011;26030;51.164;17.100;2022-09-21T10:11:56;3.70;;;2.20;;
40322;SDS011;26030;51.164;17.100;2022-09-21T10:17:05;5.00;;;2.60;;
40322;SDS011;26030;51.164;17.100;2022-09-21T10:22:15;5.10;;;2.70;;
40322;SDS011;26030;51.164;17.100;2022-09-21T10:27:26;3.80;;;2.20;;
40322;SDS011;26030;51.164;17.100;2022-09-21T10:32:30;5.70;;;2.40;;
40322;SDS011;26030;51.164;17.100;2022-09-21T10:37:37;9.00;;;2.70;;
40322;SDS011;26030;51.164;17.100;2022-09-21T10:42:43;6.00;;;2.80;;
40322;SDS011;26030;51.164;17.100;2022-09-21T10:48:08;6.50;;;2.60;;
40322;SDS011;26030;51.164;17.100;2022-09-21T10:53:33;5.80;;;2.40;;
40322;SDS011;26030;51.164;17.100;2022-09-21T10:58:38;5.40;;;2.40;;
40322;SDS011;26030;51.164;17.100;2022-09-21T11:04:00;6.00;;;2.40;;
40322;SDS011;26030;51.164;17.100;2022-09-21T11:14:41;4.90;;;2.10;;
40322;SDS011;26030;51.164;17.100;2022-09-21T11:19:48;3.00;;;2.10;;
40322;SDS011;26030;51.164;17.100;2022-09-21T11:25:18;5.60;;;2.00;;
40322;SDS011;26030;51.164;17.100;2022-09-21T11:46:26;4.50;;;2.70;;
40322;SDS011;26030;51.164;17.100;2022-09-21T11:56:52;3.60;;;2.00;;
40322;SDS011;26030;51.164;17.100;2022-09-21T12:02:22;3.90;;;2.30;;
40322;SDS011;26030;51.164;17.100;2022-09-21T12:23:25;2.90;;;1.80;;
40322;SDS011;26030;51.164;17.100;2022-09-21T12:28:35;3.80;;;2.20;;
40322;SDS011;26030;51.164;17.100;2022-09-21T12:33:51;4.20;;;2.20;;
40322;SDS011;26030;51.164;17.100;2022-09-21T12:39:04;7.20;;;2.40;;
40322;SDS011;26030;51.164;17.100;2022-09-21T12:44:22;4.70;;;2.40;;
40322;SDS011;26030;51.164;17.100;2022-09-21T12:49:31;4.90;;;2.20;;
40322;SDS011;26030;51.164;17.100;2022-09-21T12:54:49;6.60;;;2.40;;
40322;SDS011;26030;51.164;17.100;2022-09-21T13:00:12;4.60;;;1.90;;
40322;SDS011;26030;51.164;17.100;2022-09-21T13:05:44;4.70;;;2.10;;
40322;SDS011;26030;51.164;17.100;2022-09-21T13:15:58;6.20;;;2.40;;
40322;SDS011;26030;51.164;17.100;2022-09-21T13:21:19;3.70;;;2.40;;
40322;SDS011;26030;51.164;17.100;2022-09-21T13:26:49;4.60;;;2.30;;
40322;SDS011;26030;51.164;17.100;2022-09-21T13:31:59;3.90;;;2.40;;
40322;SDS011;26030;51.164;17.100;2022-09-21T13:37:27;5.50;;;2.50;;
40322;SDS011;26030;51.164;17.100;2022-09-21T13:47:41;3.90;;;2.20;;
40322;SDS011;26030;51.164;17.100;2022-09-21T13:52:48;5.20;;;2.10;;
40322;SDS011;26030;51.164;17.100;2022-09-21T14:03:26;3.60;;;2.30;;
40322;SDS011;26030;51.164;17.100;2022-09-21T14:08:37;3.40;;;2.40;;
40322;SDS011;26030;51.164;17.100;2022-09-21T14:29:52;5.10;;;2.20;;
40322;SDS011;26030;51.164;17.100;2022-09-21T14:35:04;3.00;;;1.80;;
40322;SDS011;26030;51.164;17.100;2022-09-21T14:40:19;3.10;;;1.90;;
40322;SDS011;26030;51.164;17.100;2022-09-21T14:45:44;6.00;;;3.00;;
40322;SDS011;26030;51.164;17.100;2022-09-21T15:12:34;3.60;;;2.10;;
40322;SDS011;26030;51.164;17.100;2022-09-21T15:17:56;3.40;;;1.90;;
40322;SDS011;26030;51.164;17.100;2022-09-21T15:23:17;3.00;;;2.10;;
40322;SDS011;26030;51.164;17.100;2022-09-21T15:28:25;3.40;;;2.00;;
40322;SDS011;26030;51.164;17.100;2022-09-21T15:33:29;2.90;;;1.90;;
40322;SDS011;26030;51.164;17.100;2022-09-21T15:38:35;2.30;;;1.60;;
40322;SDS011;26030;51.164;17.100;2022-09-21T15:43:47;3.00;;;1.90;;
40322;SDS011;26030;51.164;17.100;2022-09-21T15:49:00;3.10;;;1.80;;
40322;SDS011;26030;51.164;17.100;2022-09-21T15:54:40;2.80;;;2.00;;
40322;SDS011;26030;51.164;17.100;2022-09-21T16:05:04;3.10;;;2.00;;
40322;SDS011;26030;51.164;17.100;2022-09-21T16:15:32;3.20;;;2.00;;
40322;SDS011;26030;51.164;17.100;2022-09-21T16:20:52;2.60;;;1.70;;
40322;SDS011;26030;51.164;17.100;2022-09-21T16:26:04;2.60;;;1.80;;
40322;SDS011;26030;51.164;17.100;2022-09-21T16:31:23;3.80;;;2.00;;
40322;SDS011;26030;51.164;17.100;2022-09-21T16:41:44;3.60;;;1.90;;
40322;SDS011;26030;51.164;17.100;2022-09-21T16:47:20;2.40;;;1.70;;
40322;SDS011;26030;51.164;17.100;2022-09-21T16:52:28;4.80;;;2.60;;
40322;SDS011;26030;51.164;17.100;2022-09-21T16:57:35;2.80;;;1.80;;
40322;SDS011;26030;51.164;17.100;2022-09-21T17:02:42;3.00;;;1.70;;
40322;SDS011;26030;51.164;17.100;2022-09-21T17:07:56;2.60;;;1.50;;
40322;SDS011;26030;51.164;17.100;2022-09-21T17:13:00;3.10;;;1.80;;
40322;SDS011;26030;51.164;17.100;2022-09-21T17:18:10;4.10;;;1.90;;
40322;SDS011;26030;51.164;17.100;2022-09-21T17:23:17;2.60;;;1.80;;
40322;SDS011;26030;51.164;17.100;2022-09-21T17:28:25;2.70;;;1.60;;
40322;SDS011;26030;51.164;17.100;2022-09-21T17:33:34;2.60;;;1.70;;
40322;SDS011;26030;51.164;17.100;2022-09-21T17:38:38;2.40;;;1.50;;
40322;SDS011;26030;51.164;17.100;2022-09-21T17:43:57;4.50;;;2.00;;
40322;SDS011;26030;51.164;17.100;2022-09-21T17:49:03;2.60;;;1.80;;
40322;SDS011;26030;51.164;17.100;2022-09-21T17:54:10;2.00;;;1.40;;
40322;SDS011;26030;51.164;17.100;2022-09-21T17:59:30;2.60;;;1.80;;
40322;SDS011;26030;51.164;17.100;2022-09-21T18:04:39;3.40;;;2.10;;
40322;SDS011;26030;51.164;17.100;2022-09-21T18:09:43;2.80;;;1.50;;
40322;SDS011;26030;51.164;17.100;2022-09-21T18:20:32;5.00;;;2.00;;
40322;SDS011;26030;51.164;17.100;2022-09-21T18:25:50;2.50;;;1.50;;
40322;SDS011;26030;51.164;17.100;2022-09-21T18:48:20;3.50;;;2.00;;
40322;SDS011;26030;51.164;17.100;2022-09-21T18:53:45;3.10;;;1.90;;
40322;SDS011;26030;51.164;17.100;2022-09-21T18:58:57;2.80;;;1.70;;
40322;SDS011;26030;51.164;17.100;2022-09-21T19:04:01;2.60;;;1.80;;
40322;SDS011;26030;51.164;17.100;2022-09-21T19:09:24;2.60;;;1.60;;
40322;SDS011;26030;51.164;17.100;2022-09-21T19:14:56;2.50;;;1.70;;
40322;SDS011;26030;51.164;17.100;2022-09-21T19:25:44;3.30;;;2.00;;
40322;SDS011;26030;51.164;17.100;2022-09-21T19:31:00;3.10;;;1.80;;
40322;SDS011;26030;51.164;17.100;2022-09-21T19:36:07;7.10;;;2.50;;
40322;SDS011;26030;51.164;17.100;2022-09-21T19:46:58;8.60;;;1.90;;
40322;SDS011;26030;51.164;17.100;2022-09-21T19:52:04;10.30;;;2.50;;
40322;SDS011;26030;51.164;17.100;2022-09-21T19:57:18;7.50;;;2.40;;
40322;SDS011;26030;51.164;17.100;2022-09-21T20:03:15;9.60;;;2.00;;
40322;SDS011;26030;51.164;17.100;2022-09-21T20:19:50;8.80;;;2.20;;
40322;SDS011;26030;51.164;17.100;2022-09-21T20:24:56;4.40;;;2.30;;
40322;SDS011;26030;51.164;17.100;2022-09-21T20:30:11;6.50;;;2.00;;
40322;SDS011;26030;51.164;17.100;2022-09-21T20:35:23;6.00;;;2.00;;
40322;SDS011;26030;51.164;17.100;2022-09-21T20:40:28;8.10;;;2.40;;
40322;SDS011;26030;51.164;17.100;2022-09-21T20:45:36;4.80;;;1.60;;
40322;SDS011;26030;51.164;17.100;2022-09-21T20:50:47;5.50;;;1.90;;
40322;SDS011;26030;51.164;17.100;2022-09-21T20:55:54;8.50;;;2.00;;
40322;SDS011;26030;51.164;17.100;2022-09-21T21:01:35;13.10;;;2.30;;
40322;SDS011;26030;51.164;17.100;2022-09-21T21:07:18;12.50;;;2.00;;
40322;SDS011;26030;51.164;17.100;2022-09-21T21:12:24;8.00;;;2.30;;
40322;SDS011;26030;51.164;17.100;2022-09-21T21:17:28;8.30;;;2.40;;
40322;SDS011;26030;51.164;17.100;2022-09-21T21:22:35;8.50;;;2.60;;
40322;SDS011;26030;51.164;17.100;2022-09-21T21:27:41;7.20;;;2.10;;
40322;SDS011;26030;51.164;17.100;2022-09-21T21:32:45;5.10;;;2.30;;
40322;SDS011;26030;51.164;17.100;2022-09-21T21:37:49;7.40;;;2.70;;
40322;SDS011;26030;51.164;17.100;2022-09-21T21:42:54;5.40;;;2.30;;
40322;SDS011;26030;51.164;17.100;2022-09-21T21:48:04;8.10;;;3.00;;
40322;SDS011;26030;51.164;17.100;2022-09-21T21:53:10;10.20;;;2.80;;
40322;SDS011;26030;51.164;17.100;2022-09-21T21:58:13;13.20;;;3.10;;
40322;SDS011;26030;51.164;17.100;2022-09-21T22:03:23;6.60;;;2.70;;
40322;SDS011;26030;51.164;17.100;2022-09-21T22:08:30;7.80;;;2.20;;
40322;SDS011;26030;51.164;17.100;2022-09-21T22:13:46;8.70;;;2.60;;
40322;SDS011;26030;51.164;17.100;2022-09-21T22:18:57;8.10;;;2.50;;
40322;SDS011;26030;51.164;17.100;2022-09-21T22:24:14;6.80;;;3.20;;
40322;SDS011;26030;51.164;17.100;2022-09-21T22:29:17;7.60;;;2.90;;
40322;SDS011;26030;51.164;17.100;2022-09-21T22:34:21;8.70;;;3.50;;
40322;SDS011;26030;51.164;17.100;2022-09-21T22:39:24;5.50;;;2.80;;
40322;SDS011;26030;51.164;17.100;2022-09-21T22:44:28;10.40;;;3.30;;
40322;SDS011;26030;51.164;17.100;2022-09-21T22:49:32;14.40;;;3.70;;
40322;SDS011;26030;51.164;17.100;2022-09-21T22:54:35;12.40;;;3.10;;
40322;SDS011;26030;51.164;17.100;2022-09-21T22:59:39;11.70;;;3.40;;
40322;SDS011;26030;51.164;17.100;2022-09-21T23:04:43;7.20;;;2.80;;
40322;SDS011;26030;51.164;17.100;2022-09-21T23:09:48;9.00;;;3.00;;
40322;SDS011;26030;51.164;17.100;2022-09-21T23:14:51;9.40;;;3.00;;
40322;SDS011;26030;51.164;17.100;2022-09-21T23:19:55;10.00;;;3.40;;
40322;SDS011;26030;51.164;17.100;2022-09-21T23:24:58;6.00;;;2.70;;
40322;SDS011;26030;51.164;17.100;2022-09-21T23:30:03;8.90;;;2.90;;
40322;SDS011;26030;51.164;17.100;2022-09-21T23:35:07;6.10;;;2.60;;
40322;SDS011;26030;51.164;17.100;2022-09-21T23:40:12;6.90;;;3.00;;
40322;SDS011;26030;51.164;17.100;2022-09-21T23:45:19;7.20;;;3.10;;
40322;SDS011;26030;51.164;17.100;2022-09-21T23:50:28;10.20;;;3.00;;
40322;SDS011;26030;51.164;17.100;2022-09-21T23:55:32;7.10;;;2.80;;
